createdAt,value
2019-03-24T00:00:53.717Z,52.00
2019-03-24T00:02:02.158Z,48.85
2019-03-24T00:03:08.551Z,59.08
2019-03-24T00:04:17.855Z,49.00
2019-03-24T00:05:25.418Z,51.18
2019-03-24T00:06:31.948Z,47.50
2019-03-24T00:07:39.433Z,55.08
2019-03-24T00:08:46.611Z,47.23
2019-03-24T00:09:53.421Z,45.80
2019-03-24T00:11:02.798Z,53.35
2019-03-24T00:12:08.956Z,48.33
2019-03-24T00:13:17.036Z,50.80
2019-03-24T00:14:23.400Z,47.88
2019-03-24T00:15:50.219Z,50.65
2019-03-24T00:16:57.414Z,51.55
2019-03-24T00:18:05.929Z,52.65
2019-03-24T00:19:11.979Z,51.50
2019-03-24T00:20:18.739Z,41.65
2019-03-24T00:21:25.921Z,62.80
2019-03-24T00:22:32.515Z,52.70
2019-03-24T00:23:39.489Z,48.50
2019-03-24T00:24:47.159Z,60.70
2019-03-24T00:25:53.419Z,50.28
2019-03-24T00:27:00.443Z,49.88
2019-03-24T00:28:07.505Z,49.77
2019-03-24T00:29:14.933Z,53.65
2019-03-24T00:30:23.275Z,58.50
2019-03-24T00:31:30.065Z,59.65
2019-03-24T00:32:36.295Z,52.33
2019-03-24T00:33:44.296Z,56.85
2019-03-24T00:34:51.084Z,61.63
2019-03-24T00:35:57.066Z,60.70
2019-03-24T00:37:04.936Z,54.10
2019-03-24T00:38:11.452Z,63.23
2019-03-24T00:39:19.546Z,58.78
2019-03-24T00:40:26.432Z,58.55
2019-03-24T00:41:33.434Z,63.70
2019-03-24T00:42:39.743Z,57.58
2019-03-24T00:43:46.698Z,61.58
2019-03-24T00:44:53.747Z,60.30
2019-03-24T00:45:59.912Z,60.67
2019-03-24T00:47:06.642Z,55.63
2019-03-24T00:48:14.592Z,56.53
2019-03-24T00:49:20.969Z,60.78
2019-03-24T00:50:27.951Z,49.80
2019-03-24T00:51:35.241Z,53.48
2019-03-24T00:52:41.992Z,45.28
2019-03-24T00:53:48.992Z,50.58
2019-03-24T00:54:55.882Z,56.28
2019-03-24T00:56:02.762Z,55.65
2019-03-24T00:57:09.882Z,55.12
2019-03-24T00:58:18.133Z,56.28
2019-03-24T00:59:25.332Z,48.95
2019-03-24T01:00:46.934Z,47.75
2019-03-24T01:01:52.977Z,51.37
2019-03-24T01:02:59.422Z,54.95
2019-03-24T01:04:05.822Z,51.60
2019-03-24T01:05:11.842Z,46.85
2019-03-24T01:06:18.129Z,51.60
2019-03-24T01:07:25.322Z,55.70
2019-03-24T01:08:32.049Z,50.25
2019-03-24T01:09:39.132Z,66.62
2019-03-24T01:10:46.362Z,58.10
2019-03-24T01:11:53.446Z,57.20
2019-03-24T01:13:00.032Z,52.33
2019-03-24T01:14:06.744Z,49.88
2019-03-24T01:15:13.784Z,45.65
2019-03-24T01:16:21.701Z,52.43
2019-03-24T01:17:28.161Z,47.55
2019-03-24T01:18:34.207Z,52.20
2019-03-24T01:19:40.803Z,49.30
2019-03-24T01:20:47.953Z,49.08
2019-03-24T01:21:54.183Z,46.90
2019-03-24T01:23:01.073Z,51.98
2019-03-24T01:24:09.099Z,51.75
2019-03-24T01:25:15.543Z,50.85
2019-03-24T01:26:22.287Z,50.92
2019-03-24T01:27:28.821Z,49.13
2019-03-24T01:28:35.290Z,51.10
2019-03-24T01:29:42.395Z,58.40
2019-03-24T01:30:49.020Z,46.80
2019-03-24T01:31:55.008Z,58.38
2019-03-24T01:33:03.070Z,50.10
2019-03-24T01:34:09.840Z,53.23
2019-03-24T01:35:16.737Z,60.48
2019-03-24T01:36:23.169Z,56.75
2019-03-24T01:37:29.970Z,76.62
2019-03-24T01:38:37.057Z,126.45
2019-03-24T01:39:43.999Z,132.65
2019-03-24T01:40:52.480Z,68.12
2019-03-24T01:42:19.950Z,55.28
2019-03-24T01:43:26.449Z,51.10
2019-03-24T01:44:33.347Z,52.45
2019-03-24T01:45:40.007Z,52.00
2019-03-24T01:46:46.860Z,49.63
2019-03-24T01:47:53.830Z,55.00
2019-03-24T01:48:59.930Z,46.40
2019-03-24T01:50:07.839Z,55.03
2019-03-24T01:51:15.140Z,45.88
2019-03-24T01:52:21.021Z,46.70
2019-03-24T01:53:27.334Z,46.55
2019-03-24T01:54:34.060Z,46.60
2019-03-24T01:55:40.210Z,54.18
2019-03-24T01:56:47.091Z,46.48
2019-03-24T01:57:54.061Z,53.23
2019-03-24T01:59:00.168Z,47.78
2019-03-24T02:00:10.080Z,48.28
2019-03-24T02:01:16.910Z,46.68
2019-03-24T02:02:24.060Z,47.70
2019-03-24T02:03:31.571Z,48.08
2019-03-24T02:04:38.611Z,49.08
2019-03-24T02:05:45.036Z,45.90
2019-03-24T02:06:51.187Z,43.48
2019-03-24T02:07:59.807Z,50.67
2019-03-24T02:09:07.900Z,57.70
2019-03-24T02:10:15.221Z,42.45
2019-03-24T02:11:21.699Z,42.10
2019-03-24T02:12:28.209Z,37.93
2019-03-24T02:13:35.540Z,41.08
2019-03-24T02:14:43.398Z,43.33
2019-03-24T02:15:50.301Z,48.98
2019-03-24T02:16:59.216Z,47.27
2019-03-24T02:18:05.560Z,50.38
2019-03-24T02:19:12.721Z,48.02
2019-03-24T02:20:19.451Z,45.92
2019-03-24T02:21:25.456Z,46.58
2019-03-24T02:22:32.591Z,44.58
2019-03-24T02:23:39.550Z,41.40
2019-03-24T02:24:45.481Z,47.53
2019-03-24T02:25:52.091Z,45.90
2019-03-24T02:26:59.343Z,40.40
2019-03-24T02:28:06.389Z,36.63
2019-03-24T02:29:13.638Z,45.43
2019-03-24T02:30:20.494Z,40.38
2019-03-24T02:31:27.051Z,43.00
2019-03-24T02:32:34.015Z,40.80
2019-03-24T02:33:41.597Z,42.62
2019-03-24T02:34:49.500Z,44.18
2019-03-24T02:35:56.949Z,36.83
2019-03-24T02:37:03.971Z,46.50
2019-03-24T02:38:10.052Z,40.20
2019-03-24T02:39:16.856Z,37.25
2019-03-24T02:40:24.343Z,39.83
2019-03-24T02:41:30.811Z,46.28
2019-03-24T02:42:38.352Z,44.53
2019-03-24T02:43:44.973Z,45.00
2019-03-24T02:44:51.292Z,47.98
2019-03-24T02:45:58.854Z,38.92
2019-03-24T02:47:05.462Z,36.53
2019-03-24T02:48:12.869Z,38.53
2019-03-24T02:49:19.912Z,31.17
2019-03-24T02:50:26.814Z,40.58
2019-03-24T02:51:33.462Z,37.85
2019-03-24T02:52:39.983Z,46.48
2019-03-24T02:53:46.252Z,35.78
2019-03-24T02:54:53.041Z,37.95
2019-03-24T02:55:59.903Z,37.50
2019-03-24T02:57:07.105Z,35.52
2019-03-24T02:58:14.603Z,37.75
2019-03-24T02:59:21.862Z,33.78
2019-03-24T03:00:28.222Z,36.65
2019-03-24T03:01:35.357Z,40.20
2019-03-24T03:02:42.303Z,45.10
2019-03-24T03:03:49.542Z,30.90
2019-03-24T03:04:55.589Z,33.58
2019-03-24T03:06:02.144Z,32.15
2019-03-24T03:07:08.573Z,40.12
2019-03-24T03:08:35.682Z,28.65
2019-03-24T03:09:42.904Z,31.45
2019-03-24T03:10:50.512Z,37.48
2019-03-24T03:11:56.645Z,37.17
2019-03-24T03:13:02.941Z,38.90
2019-03-24T03:14:09.784Z,37.45
2019-03-24T03:15:15.951Z,40.17
2019-03-24T03:16:22.733Z,32.58
2019-03-24T03:17:30.152Z,34.65
2019-03-24T03:18:37.014Z,31.97
2019-03-24T03:19:43.141Z,26.85
2019-03-24T03:20:49.953Z,30.95
2019-03-24T03:21:56.794Z,33.02
2019-03-24T03:23:04.104Z,34.53
2019-03-24T03:24:10.557Z,29.72
2019-03-24T03:25:17.284Z,40.83
2019-03-24T03:26:24.214Z,34.13
2019-03-24T03:27:31.040Z,34.53
2019-03-24T03:28:37.172Z,37.03
2019-03-24T03:29:45.603Z,37.58
2019-03-24T03:30:52.718Z,32.55
2019-03-24T03:31:59.125Z,49.77
2019-03-24T03:33:05.718Z,36.90
2019-03-24T03:34:12.761Z,32.42
2019-03-24T03:35:18.694Z,32.15
2019-03-24T03:36:25.574Z,36.10
2019-03-24T03:37:32.275Z,38.15
2019-03-24T03:38:39.125Z,40.78
2019-03-24T03:39:45.436Z,36.70
2019-03-24T03:40:52.669Z,37.10
2019-03-24T03:41:59.227Z,31.70
2019-03-24T03:43:06.030Z,36.17
2019-03-24T03:44:12.767Z,29.15
2019-03-24T03:45:27.877Z,28.17
2019-03-24T03:46:34.722Z,33.73
2019-03-24T03:47:41.707Z,29.52
2019-03-24T03:48:47.847Z,33.90
2019-03-24T03:49:54.350Z,35.55
2019-03-24T03:51:01.467Z,39.63
2019-03-24T03:52:07.849Z,43.68
2019-03-24T03:53:14.026Z,91.28
2019-03-24T03:54:21.969Z,136.85
2019-03-24T03:55:28.764Z,122.40
2019-03-24T03:56:35.112Z,220.05
2019-03-24T03:57:41.997Z,207.20
2019-03-24T03:58:48.017Z,103.55
2019-03-24T03:59:54.592Z,66.33
2019-03-24T04:01:22.169Z,31.17
2019-03-24T04:02:28.228Z,35.98
2019-03-24T04:03:35.242Z,30.75
2019-03-24T04:04:41.846Z,33.15
2019-03-24T04:05:47.857Z,26.80
2019-03-24T04:06:54.546Z,49.88
2019-03-24T04:08:02.518Z,44.70
2019-03-24T04:09:08.404Z,38.30
2019-03-24T04:10:14.965Z,55.65
2019-03-24T04:11:21.576Z,90.45
2019-03-24T04:12:27.743Z,103.45
2019-03-24T04:13:34.871Z,117.72
2019-03-24T04:14:42.307Z,142.93
2019-03-24T04:15:49.082Z,135.43
2019-03-24T04:17:06.870Z,147.05
2019-03-24T04:18:05.989Z,140.57
2019-03-24T04:19:11.848Z,119.70
2019-03-24T04:20:18.566Z,91.67
2019-03-24T04:21:26.427Z,68.60
2019-03-24T04:22:32.607Z,48.83
2019-03-24T04:23:39.439Z,54.53
2019-03-24T04:24:46.357Z,49.27
2019-03-24T04:25:52.433Z,40.45
2019-03-24T04:26:59.016Z,53.65
2019-03-24T04:28:05.973Z,50.52
2019-03-24T04:29:14.157Z,39.65
2019-03-24T04:30:20.673Z,39.55
2019-03-24T04:31:28.547Z,52.10
2019-03-24T04:32:34.881Z,49.03
2019-03-24T04:33:42.482Z,64.60
2019-03-24T04:34:50.972Z,66.35
2019-03-24T04:35:56.921Z,47.05
2019-03-24T04:37:03.341Z,43.73
2019-03-24T04:38:10.097Z,35.25
2019-03-24T04:39:16.917Z,31.33
2019-03-24T04:40:24.497Z,27.50
2019-03-24T04:41:31.397Z,26.90
2019-03-24T04:42:37.730Z,33.85
2019-03-24T04:43:44.731Z,31.02
2019-03-24T04:44:51.916Z,34.65
2019-03-24T04:45:58.036Z,33.35
2019-03-24T04:47:16.184Z,34.38
2019-03-24T04:48:15.228Z,37.45
2019-03-24T04:49:21.485Z,48.02
2019-03-24T04:50:27.758Z,41.63
2019-03-24T04:51:34.757Z,34.20
2019-03-24T04:52:41.205Z,33.98
2019-03-24T04:53:48.119Z,38.85
2019-03-24T04:54:54.949Z,29.00
2019-03-24T04:56:00.827Z,27.93
2019-03-24T04:57:07.676Z,27.65
2019-03-24T04:58:14.537Z,27.60
2019-03-24T04:59:22.087Z,26.45
2019-03-24T05:00:38.317Z,32.78
2019-03-24T05:01:45.620Z,26.73
2019-03-24T05:02:51.416Z,32.58
2019-03-24T05:03:58.307Z,39.80
2019-03-24T05:05:06.526Z,36.48
2019-03-24T05:06:12.727Z,33.73
2019-03-24T05:07:19.759Z,29.60
2019-03-24T05:08:26.629Z,34.98
2019-03-24T05:09:32.718Z,27.22
2019-03-24T05:10:40.276Z,33.18
2019-03-24T05:11:46.707Z,28.50
2019-03-24T05:12:53.257Z,29.72
2019-03-24T05:14:00.037Z,26.02
2019-03-24T05:15:06.955Z,34.15
2019-03-24T05:16:13.787Z,23.42
2019-03-24T05:17:26.919Z,28.27
2019-03-24T05:18:29.067Z,27.10
2019-03-24T05:19:35.627Z,25.52
2019-03-24T05:20:43.487Z,26.68
2019-03-24T05:21:50.084Z,34.50
2019-03-24T05:22:56.807Z,26.85
2019-03-24T05:24:03.724Z,25.48
2019-03-24T05:25:09.928Z,36.15
2019-03-24T05:26:17.166Z,31.00
2019-03-24T05:27:24.508Z,28.57
2019-03-24T05:28:30.839Z,33.58
2019-03-24T05:29:37.798Z,33.60
2019-03-24T05:30:44.908Z,34.13
2019-03-24T05:31:50.907Z,32.93
2019-03-24T05:32:57.319Z,27.42
2019-03-24T05:34:04.231Z,33.13
2019-03-24T05:35:10.067Z,30.75
2019-03-24T05:36:16.378Z,29.25
2019-03-24T05:37:23.569Z,27.00
2019-03-24T05:38:29.908Z,32.38
2019-03-24T05:39:36.825Z,25.52
2019-03-24T05:40:43.445Z,31.17
2019-03-24T05:41:50.568Z,33.65
2019-03-24T05:42:57.319Z,27.67
2019-03-24T05:44:04.576Z,34.27
2019-03-24T05:45:10.759Z,30.85
2019-03-24T05:46:17.228Z,38.23
2019-03-24T05:47:23.985Z,34.40
2019-03-24T05:48:32.792Z,31.00
2019-03-24T05:49:40.741Z,26.52
2019-03-24T05:50:47.929Z,36.35
2019-03-24T05:51:54.398Z,30.15
2019-03-24T05:53:01.199Z,25.88
2019-03-24T05:54:08.356Z,33.88
2019-03-24T05:55:15.438Z,29.27
2019-03-24T05:56:22.838Z,28.00
2019-03-24T05:57:29.856Z,31.50
2019-03-24T05:58:36.909Z,33.05
2019-03-24T05:59:43.545Z,32.30
2019-03-24T06:00:51.469Z,31.05
2019-03-24T06:01:58.498Z,34.43
2019-03-24T06:03:05.149Z,37.23
2019-03-24T06:04:12.438Z,28.70
2019-03-24T06:05:19.309Z,32.30
2019-03-24T06:06:26.328Z,29.50
2019-03-24T06:07:33.669Z,27.50
2019-03-24T06:08:40.089Z,33.60
2019-03-24T06:09:47.696Z,30.23
2019-03-24T06:10:54.119Z,28.37
2019-03-24T06:12:00.309Z,20.97
2019-03-24T06:13:06.936Z,24.33
2019-03-24T06:14:14.593Z,23.03
2019-03-24T06:15:20.489Z,23.13
2019-03-24T06:16:26.910Z,27.57
2019-03-24T06:17:33.602Z,31.40
2019-03-24T06:18:40.469Z,26.33
2019-03-24T06:19:47.230Z,24.97
2019-03-24T06:20:53.759Z,32.53
2019-03-24T06:22:00.629Z,29.73
2019-03-24T06:23:07.589Z,34.67
2019-03-24T06:24:15.419Z,31.23
2019-03-24T06:25:21.585Z,30.83
2019-03-24T06:26:28.349Z,26.90
2019-03-24T06:27:34.957Z,34.33
2019-03-24T06:28:41.260Z,27.37
2019-03-24T06:29:48.009Z,28.37
2019-03-24T06:30:54.720Z,28.17
2019-03-24T06:32:00.840Z,30.40
2019-03-24T06:33:08.710Z,31.70
2019-03-24T06:34:15.641Z,26.37
2019-03-24T06:35:23.119Z,31.43
2019-03-24T06:36:31.321Z,27.33
2019-03-24T06:37:38.156Z,25.87
2019-03-24T06:38:44.634Z,31.97
2019-03-24T06:39:51.349Z,33.53
2019-03-24T06:40:58.440Z,30.00
2019-03-24T06:42:05.134Z,22.77
2019-03-24T06:43:11.550Z,25.00
2019-03-24T06:44:18.171Z,27.73
2019-03-24T06:45:28.719Z,24.67
2019-03-24T06:46:36.267Z,26.43
2019-03-24T06:47:45.200Z,30.93
2019-03-24T06:48:51.480Z,30.90
2019-03-24T06:49:57.997Z,23.10
2019-03-24T06:51:04.830Z,23.33
2019-03-24T06:52:11.393Z,30.07
2019-03-24T06:53:18.358Z,20.87
2019-03-24T06:54:24.882Z,24.27
2019-03-24T06:55:31.216Z,28.47
2019-03-24T06:56:37.239Z,22.73
2019-03-24T06:57:43.919Z,31.60
2019-03-24T06:58:49.769Z,28.37
2019-03-24T06:59:56.558Z,30.90
2019-03-24T07:01:03.905Z,27.43
2019-03-24T07:02:10.391Z,23.43
2019-03-24T07:03:17.223Z,21.97
2019-03-24T07:04:24.254Z,31.10
2019-03-24T07:05:30.391Z,22.27
2019-03-24T07:06:38.217Z,24.93
2019-03-24T07:07:44.932Z,21.97
2019-03-24T07:08:51.023Z,21.67
2019-03-24T07:09:57.664Z,22.37
2019-03-24T07:11:08.488Z,25.23
2019-03-24T07:12:12.121Z,25.80
2019-03-24T07:13:19.344Z,23.80
2019-03-24T07:14:26.336Z,51.63
2019-03-24T07:15:32.754Z,92.97
2019-03-24T07:16:39.191Z,57.47
2019-03-24T07:17:45.911Z,53.50
2019-03-24T07:18:51.834Z,35.10
2019-03-24T07:19:58.381Z,57.47
2019-03-24T07:21:06.205Z,34.13
2019-03-24T07:22:12.534Z,23.27
2019-03-24T07:23:19.304Z,30.03
2019-03-24T07:24:28.062Z,35.10
2019-03-24T07:25:34.390Z,32.63
2019-03-24T07:26:41.283Z,32.63
2019-03-24T07:27:49.553Z,24.73
2019-03-24T07:28:56.471Z,26.23
2019-03-24T07:30:04.311Z,22.43
2019-03-24T07:31:10.656Z,21.13
2019-03-24T07:32:17.574Z,29.67
2019-03-24T07:33:24.032Z,36.93
2019-03-24T07:34:30.702Z,43.60
2019-03-24T07:35:37.704Z,28.30
2019-03-24T07:36:44.535Z,36.90
2019-03-24T07:37:51.195Z,26.20
2019-03-24T07:38:57.516Z,23.40
2019-03-24T07:40:04.492Z,21.97
2019-03-24T07:41:11.875Z,21.63
2019-03-24T07:42:19.122Z,32.67
2019-03-24T07:43:25.842Z,21.93
2019-03-24T07:44:34.055Z,25.57
2019-03-24T07:45:42.952Z,24.53
2019-03-24T07:46:49.285Z,21.30
2019-03-24T07:47:56.432Z,25.13
2019-03-24T07:49:06.762Z,25.90
2019-03-24T07:50:13.677Z,23.03
2019-03-24T07:51:20.175Z,23.13
2019-03-24T07:52:27.205Z,28.43
2019-03-24T07:53:33.422Z,28.63
2019-03-24T07:54:41.986Z,28.37
2019-03-24T07:55:49.585Z,24.10
2019-03-24T07:56:55.603Z,25.73
2019-03-24T07:58:02.442Z,28.70
2019-03-24T07:59:10.846Z,26.67
2019-03-24T08:00:21.846Z,25.23
2019-03-24T08:01:30.016Z,29.67
2019-03-24T08:02:36.873Z,25.87
2019-03-24T08:03:44.411Z,30.80
2019-03-24T08:04:51.187Z,26.40
2019-03-24T08:06:18.784Z,22.93
2019-03-24T08:07:25.435Z,22.47
2019-03-24T08:08:32.193Z,21.87
2019-03-24T08:09:39.512Z,25.67
2019-03-24T08:10:45.513Z,24.73
2019-03-24T08:11:54.204Z,23.27
2019-03-24T08:13:00.893Z,24.83
2019-03-24T08:14:07.136Z,39.10
2019-03-24T08:15:17.032Z,52.00
2019-03-24T08:16:25.615Z,26.80
2019-03-24T08:17:32.426Z,25.03
2019-03-24T08:18:39.634Z,24.37
2019-03-24T08:19:46.952Z,28.00
2019-03-24T08:20:53.772Z,30.27
2019-03-24T08:21:59.670Z,20.00
2019-03-24T08:23:05.614Z,30.10
2019-03-24T08:24:12.154Z,29.90
2019-03-24T08:25:19.241Z,24.80
2019-03-24T08:26:26.373Z,26.97
2019-03-24T08:27:33.143Z,34.67
2019-03-24T08:28:40.900Z,32.10
2019-03-24T08:29:47.393Z,21.47
2019-03-24T08:30:54.270Z,21.13
2019-03-24T08:32:01.073Z,33.00
2019-03-24T08:33:07.580Z,30.30
2019-03-24T08:34:14.221Z,28.83
2019-03-24T08:35:20.774Z,24.30
2019-03-24T08:36:27.334Z,32.20
2019-03-24T08:37:35.232Z,26.97
2019-03-24T08:38:41.586Z,25.73
2019-03-24T08:39:48.542Z,19.50
2019-03-24T08:40:55.013Z,25.23
2019-03-24T08:42:05.696Z,18.40
2019-03-24T08:43:12.036Z,26.17
2019-03-24T08:44:18.712Z,17.57
2019-03-24T08:45:32.110Z,20.13
2019-03-24T08:46:38.493Z,24.93
2019-03-24T08:47:45.352Z,21.17
2019-03-24T08:48:53.174Z,23.73
2019-03-24T08:49:59.946Z,28.80
2019-03-24T08:51:07.682Z,28.27
2019-03-24T08:52:14.715Z,28.83
2019-03-24T08:53:21.385Z,20.03
2019-03-24T08:54:27.826Z,22.70
2019-03-24T08:55:34.505Z,53.90
2019-03-24T08:56:41.648Z,47.07
2019-03-24T08:57:47.671Z,31.33
2019-03-24T08:58:54.473Z,25.10
2019-03-24T09:00:03.767Z,22.90
2019-03-24T09:01:09.473Z,22.73
2019-03-24T09:02:15.725Z,25.90
2019-03-24T09:03:24.496Z,22.30
2019-03-24T09:04:32.148Z,27.83
2019-03-24T09:05:38.515Z,25.90
2019-03-24T09:06:46.091Z,22.27
2019-03-24T09:07:53.088Z,18.83
2019-03-24T09:09:00.394Z,19.00
2019-03-24T09:10:09.153Z,20.80
2019-03-24T09:11:30.860Z,21.20
2019-03-24T09:12:31.221Z,23.27
2019-03-24T09:13:37.788Z,23.43
2019-03-24T09:14:44.734Z,32.97
2019-03-24T09:15:52.154Z,19.23
2019-03-24T09:16:58.172Z,19.90
2019-03-24T09:18:05.243Z,29.53
2019-03-24T09:19:14.122Z,35.90
2019-03-24T09:20:20.231Z,29.27
2019-03-24T09:21:27.311Z,25.87
2019-03-24T09:22:33.997Z,23.67
2019-03-24T09:23:40.764Z,28.80
2019-03-24T09:24:48.665Z,27.90
2019-03-24T09:25:55.455Z,17.20
2019-03-24T09:27:02.043Z,35.30
2019-03-24T09:28:09.328Z,41.37
2019-03-24T09:29:15.774Z,28.40
2019-03-24T09:30:34.744Z,22.03
2019-03-24T09:31:41.003Z,34.40
2019-03-24T09:32:48.394Z,28.67
2019-03-24T09:34:02.237Z,33.13
2019-03-24T09:35:09.013Z,26.70
2019-03-24T09:36:16.914Z,19.93
2019-03-24T09:37:23.593Z,17.87
2019-03-24T09:38:30.573Z,16.27
2019-03-24T09:39:37.473Z,23.07
2019-03-24T09:40:43.554Z,20.30
2019-03-24T09:41:49.973Z,24.87
2019-03-24T09:44:20.876Z,23.40
2019-03-24T09:45:27.533Z,18.03
2019-03-24T09:46:35.333Z,16.27
2019-03-24T09:47:45.343Z,20.73
2019-03-24T09:49:02.455Z,19.10
2019-03-24T09:50:00.533Z,20.07
2019-03-24T09:51:06.643Z,28.17
2019-03-24T09:52:14.893Z,27.10
2019-03-24T09:53:21.015Z,25.43
2019-03-24T09:54:27.346Z,25.50
2019-03-24T09:55:34.903Z,27.97
2019-03-24T09:56:42.158Z,23.47
2019-03-24T09:57:49.238Z,30.47
2019-03-24T09:58:57.847Z,15.43
2019-03-24T10:00:05.018Z,16.93
2019-03-24T10:01:11.256Z,18.60
2019-03-24T10:02:17.895Z,18.47
2019-03-24T10:03:25.424Z,18.10
2019-03-24T10:04:31.734Z,20.20
2019-03-24T10:05:40.016Z,26.17
2019-03-24T10:06:47.054Z,33.17
2019-03-24T10:07:52.966Z,27.23
2019-03-24T10:09:00.984Z,30.30
2019-03-24T10:10:09.633Z,30.20
2019-03-24T10:11:16.576Z,24.50
2019-03-24T10:12:23.976Z,31.57
2019-03-24T10:13:30.746Z,21.23
2019-03-24T10:14:36.716Z,24.07
2019-03-24T10:15:43.746Z,20.20
2019-03-24T10:16:50.888Z,33.57
2019-03-24T10:17:56.924Z,49.73
2019-03-24T10:19:13.271Z,60.87
2019-03-24T10:20:11.563Z,80.73
2019-03-24T10:21:17.816Z,19.40
2019-03-24T10:22:26.059Z,22.60
2019-03-24T10:23:34.228Z,26.10
2019-03-24T10:24:40.713Z,20.63
2019-03-24T10:25:46.717Z,17.90
2019-03-24T10:26:52.606Z,20.60
2019-03-24T10:27:58.890Z,26.60
2019-03-24T10:29:05.947Z,21.20
2019-03-24T10:30:12.427Z,21.40
2019-03-24T10:31:18.524Z,19.77
2019-03-24T10:32:24.545Z,27.53
2019-03-24T10:33:30.646Z,21.13
2019-03-24T10:34:36.548Z,16.10
2019-03-24T10:35:43.284Z,21.23
2019-03-24T10:36:50.055Z,18.97
2019-03-24T10:37:57.324Z,22.90
2019-03-24T10:39:06.004Z,21.93
2019-03-24T10:40:13.858Z,17.27
2019-03-24T10:41:20.095Z,15.73
2019-03-24T10:42:26.538Z,19.23
2019-03-24T10:43:32.874Z,18.17
2019-03-24T10:44:40.434Z,14.90
2019-03-24T10:45:47.345Z,18.27
2019-03-24T10:46:53.944Z,24.07
2019-03-24T10:48:02.338Z,29.60
2019-03-24T10:49:08.935Z,22.23
2019-03-24T10:50:16.634Z,29.67
2019-03-24T10:51:23.794Z,21.80
2019-03-24T10:52:30.108Z,23.97
2019-03-24T10:53:36.795Z,22.87
2019-03-24T10:54:43.518Z,26.87
2019-03-24T10:55:50.164Z,15.20
2019-03-24T10:56:58.275Z,23.00
2019-03-24T10:58:04.714Z,17.10
2019-03-24T10:59:11.744Z,22.10
2019-03-24T11:00:23.958Z,23.90
2019-03-24T11:01:31.736Z,14.50
2019-03-24T11:02:39.245Z,19.17
2019-03-24T11:03:45.868Z,17.53
2019-03-24T11:04:52.337Z,18.70
2019-03-24T11:05:59.830Z,17.97
2019-03-24T11:07:06.416Z,25.40
2019-03-24T11:08:13.474Z,23.63
2019-03-24T11:09:22.477Z,25.23
2019-03-24T11:10:29.658Z,16.77
2019-03-24T11:11:35.717Z,17.93
2019-03-24T11:12:42.423Z,21.37
2019-03-24T11:13:49.419Z,26.47
2019-03-24T11:14:56.058Z,30.03
2019-03-24T11:16:03.278Z,37.90
2019-03-24T11:17:10.600Z,26.20
2019-03-24T11:18:17.051Z,23.17
2019-03-24T11:19:35.035Z,21.93
2019-03-24T11:20:35.780Z,22.57
2019-03-24T11:21:42.263Z,26.30
2019-03-24T11:22:48.800Z,23.90
2019-03-24T11:23:55.840Z,38.03
2019-03-24T11:25:02.093Z,46.57
2019-03-24T11:26:09.000Z,37.33
2019-03-24T11:27:15.473Z,33.30
2019-03-24T11:28:21.483Z,24.73
2019-03-24T11:29:27.584Z,18.90
2019-03-24T11:30:34.023Z,24.10
2019-03-24T11:31:40.153Z,16.00
2019-03-24T11:32:48.193Z,19.97
2019-03-24T11:33:55.161Z,25.93
2019-03-24T11:35:02.122Z,37.53
2019-03-24T11:36:10.213Z,18.67
2019-03-24T11:37:17.312Z,17.17
2019-03-24T11:38:24.561Z,16.07
2019-03-24T11:39:32.800Z,14.60
2019-03-24T11:40:59.983Z,13.07
2019-03-24T11:42:07.214Z,17.30
2019-03-24T11:43:13.298Z,16.00
2019-03-24T11:44:20.229Z,12.10
2019-03-24T11:45:29.341Z,19.00
2019-03-24T11:46:35.862Z,17.43
2019-03-24T11:47:42.358Z,17.67
2019-03-24T11:48:50.069Z,20.33
2019-03-24T11:49:57.278Z,14.37
2019-03-24T11:51:03.241Z,18.13
2019-03-24T11:52:09.460Z,17.23
2019-03-24T11:53:16.218Z,15.27
2019-03-24T11:54:25.315Z,16.30
2019-03-24T11:55:32.510Z,17.57
2019-03-24T11:56:39.149Z,21.50
2019-03-24T11:57:45.559Z,17.20
2019-03-24T11:58:52.302Z,20.23
2019-03-24T11:59:58.989Z,17.70
2019-03-24T12:01:05.223Z,13.77
2019-03-24T12:02:14.291Z,19.70
2019-03-24T12:03:21.671Z,18.27
2019-03-24T12:04:29.562Z,19.90
2019-03-24T12:05:37.916Z,25.97
2019-03-24T12:06:45.111Z,23.27
2019-03-24T12:07:51.481Z,23.37
2019-03-24T12:08:59.674Z,24.40
2019-03-24T12:10:28.331Z,25.33
2019-03-24T12:11:35.065Z,21.43
2019-03-24T12:13:02.721Z,33.10
2019-03-24T12:14:10.583Z,24.57
2019-03-24T12:15:17.804Z,22.73
2019-03-24T12:16:25.442Z,32.43
2019-03-24T12:17:33.761Z,27.97
2019-03-24T12:18:40.914Z,26.67
2019-03-24T12:19:56.422Z,19.53
2019-03-24T12:20:56.084Z,21.47
2019-03-24T12:22:03.894Z,26.50
2019-03-24T12:23:10.914Z,17.60
2019-03-24T12:24:18.801Z,14.60
2019-03-24T12:25:26.692Z,21.73
2019-03-24T12:26:33.761Z,17.93
2019-03-24T12:27:40.681Z,20.67
2019-03-24T12:28:47.312Z,20.07
2019-03-24T12:29:54.597Z,23.67
2019-03-24T12:31:02.814Z,28.43
2019-03-24T12:32:10.542Z,15.93
2019-03-24T12:33:17.431Z,23.17
2019-03-24T12:34:24.522Z,19.03
2019-03-24T12:35:30.715Z,18.37
2019-03-24T12:36:37.561Z,17.30
2019-03-24T12:37:44.901Z,17.10
2019-03-24T12:38:51.184Z,44.83
2019-03-24T12:39:59.812Z,25.80
2019-03-24T12:41:07.402Z,21.33
2019-03-24T12:42:15.299Z,14.50
2019-03-24T12:43:22.602Z,24.53
2019-03-24T12:44:29.307Z,22.40
2019-03-24T12:45:35.632Z,15.07
2019-03-24T12:46:44.275Z,17.93
2019-03-24T12:47:52.032Z,22.63
2019-03-24T12:48:58.412Z,17.93
2019-03-24T12:50:09.966Z,14.07
2019-03-24T12:51:17.004Z,25.40
2019-03-24T12:52:23.356Z,22.50
2019-03-24T12:53:29.963Z,19.20
2019-03-24T12:54:36.931Z,15.40
2019-03-24T12:55:44.634Z,28.23
2019-03-24T12:56:51.562Z,19.90
2019-03-24T12:57:58.763Z,24.40
2019-03-24T12:59:05.004Z,20.97
2019-03-24T13:00:14.076Z,21.27
2019-03-24T13:01:21.649Z,19.27
2019-03-24T13:02:29.125Z,20.73
2019-03-24T13:03:35.965Z,25.63
2019-03-24T13:04:42.922Z,19.77
2019-03-24T13:05:49.993Z,17.47
2019-03-24T13:06:57.621Z,16.80
2019-03-24T13:08:18.293Z,23.90
2019-03-24T13:09:24.660Z,27.07
2019-03-24T13:10:31.836Z,16.47
2019-03-24T13:11:38.077Z,16.53
2019-03-24T13:12:45.173Z,16.17
2019-03-24T13:13:52.325Z,15.97
2019-03-24T13:14:58.645Z,19.27
2019-03-24T13:16:06.064Z,15.27
2019-03-24T13:17:15.253Z,16.27
2019-03-24T13:18:21.642Z,16.93
2019-03-24T13:19:28.368Z,13.30
2019-03-24T13:20:38.754Z,16.17
2019-03-24T13:21:47.117Z,23.80
2019-03-24T13:22:54.192Z,18.67
2019-03-24T13:24:01.690Z,31.27
2019-03-24T13:25:08.702Z,23.03
2019-03-24T13:26:15.408Z,18.03
2019-03-24T13:27:22.340Z,72.00
2019-03-24T13:28:28.460Z,22.70
2019-03-24T13:29:35.473Z,13.23
2019-03-24T13:30:43.575Z,8.83
2019-03-24T13:31:49.745Z,14.60
2019-03-24T13:32:56.813Z,13.77
2019-03-24T13:34:04.283Z,11.17
2019-03-24T13:35:10.916Z,13.63
2019-03-24T13:36:17.993Z,16.47
2019-03-24T13:37:25.123Z,13.27
2019-03-24T13:38:31.686Z,15.03
2019-03-24T13:39:38.844Z,11.43
2019-03-24T13:40:46.266Z,10.87
2019-03-24T13:41:52.618Z,16.60
2019-03-24T13:43:00.111Z,11.77
2019-03-24T13:44:07.175Z,14.33
2019-03-24T13:45:13.685Z,14.70
2019-03-24T13:46:21.274Z,13.30
2019-03-24T13:47:28.204Z,16.73
2019-03-24T13:48:34.833Z,15.13
2019-03-24T13:49:42.213Z,11.03
2019-03-24T13:50:49.763Z,14.77
2019-03-24T13:51:56.338Z,13.07
2019-03-24T13:53:03.804Z,15.40
2019-03-24T13:54:11.493Z,12.00
2019-03-24T13:55:18.613Z,14.47
2019-03-24T13:56:25.565Z,15.43
2019-03-24T13:57:32.863Z,13.07
2019-03-24T13:58:39.893Z,13.20
2019-03-24T13:59:47.556Z,17.17
2019-03-24T14:00:54.643Z,15.20
2019-03-24T14:02:00.983Z,12.30
2019-03-24T14:03:07.856Z,13.50
2019-03-24T14:04:21.096Z,13.57
2019-03-24T14:05:27.576Z,17.53
2019-03-24T14:06:35.234Z,15.87
2019-03-24T14:07:42.367Z,13.80
2019-03-24T14:08:49.076Z,12.50
2019-03-24T14:09:55.556Z,16.17
2019-03-24T14:11:02.404Z,17.50
2019-03-24T14:12:08.856Z,13.53
2019-03-24T14:13:16.209Z,16.50
2019-03-24T14:14:23.247Z,26.37
2019-03-24T14:15:29.903Z,17.03
2019-03-24T14:16:36.563Z,14.57
2019-03-24T14:17:43.743Z,14.40
2019-03-24T14:18:52.144Z,12.83
2019-03-24T14:19:59.663Z,22.00
2019-03-24T14:21:08.387Z,19.03
2019-03-24T14:22:15.297Z,16.50
2019-03-24T14:23:22.204Z,20.33
2019-03-24T14:24:28.964Z,20.70
2019-03-24T14:25:35.583Z,19.80
2019-03-24T14:26:42.877Z,12.63
2019-03-24T14:27:50.457Z,14.60
2019-03-24T14:28:57.156Z,18.03